Terminal Aerodrome Forecast
Issued by NWS Hastings, NE

Home | Current Version | Previous Version | Text Only | Print | Product List | Glossary On
Versions: 1 2 3 4 5 6 7 8 9 10 11 12 13 14 15 16 17 18 19 20 21 22 23 24
000
FTUS45 KGID 190529
TAFEAR
TAF
KEAR 190529Z 1906/2006 18010KT P6SM BKN100
     FM191000 32010KT P6SM SCT050 BKN100
     FM191200 35017G25KT 5SM -RA BKN015 OVC050
     FM191730 35023G32KT P6SM SCT015 BKN050
     FM200100 34013G19KT P6SM SCT050 BKN120
      AMD LTD TO CLD VIS AND WIND=

USA.gov is the U.S. government's official web portal to all federal, state and local government web resources and services.